createdAt,value
2022-09-28T00:01:12.387Z,3.42
2022-09-28T00:03:20.234Z,3.42
2022-09-28T00:05:27.080Z,2.75
2022-09-28T00:07:31.402Z,3.00
2022-09-28T00:09:37.392Z,2.75
2022-09-28T00:11:41.985Z,3.33
2022-09-28T00:13:51.092Z,3.03
2022-09-28T00:16:04.881Z,3.33
2022-09-28T00:18:09.564Z,3.65
2022-09-28T00:20:13.894Z,3.80
2022-09-28T00:22:18.747Z,4.05
2022-09-28T00:24:30.652Z,3.80
2022-09-28T00:26:36.534Z,3.70
2022-09-28T00:28:40.932Z,4.50
2022-09-28T00:30:45.220Z,4.43
2022-09-28T00:32:49.752Z,4.03
2022-09-28T00:34:55.180Z,3.35
2022-09-28T00:37:00.100Z,3.65
2022-09-28T00:39:07.021Z,3.40
2022-09-28T00:41:12.666Z,3.17
2022-09-28T00:43:22.428Z,3.78
2022-09-28T00:45:28.228Z,3.47
2022-09-28T00:47:42.438Z,4.43
2022-09-28T00:49:52.866Z,3.95
2022-09-28T00:51:57.620Z,3.47
2022-09-28T00:54:05.518Z,3.38
2022-09-28T00:56:14.018Z,3.63
2022-09-28T00:58:22.711Z,3.47
2022-09-28T01:00:27.268Z,3.47
2022-09-28T01:02:32.692Z,4.25
2022-09-28T01:04:39.741Z,3.75
2022-09-28T01:06:46.863Z,4.28
2022-09-28T01:08:56.084Z,3.72
2022-09-28T01:11:01.487Z,2.83
2022-09-28T01:13:06.059Z,3.28
2022-09-28T01:15:12.524Z,3.70
2022-09-28T01:17:19.107Z,3.70
2022-09-28T01:20:02.911Z,3.05
2022-09-28T01:22:24.962Z,4.00
2022-09-28T01:24:43.027Z,3.20
2022-09-28T01:27:07.048Z,3.13
2022-09-28T01:29:18.841Z,4.28
2022-09-28T01:31:28.261Z,3.30
2022-09-28T01:33:41.473Z,3.25
2022-09-28T01:35:52.648Z,3.45
2022-09-28T01:38:06.184Z,3.85
2022-09-28T01:40:13.570Z,3.60
2022-09-28T01:42:25.249Z,2.50
2022-09-28T01:44:33.230Z,3.50
2022-09-28T01:46:42.388Z,3.67
2022-09-28T01:48:51.034Z,3.42
2022-09-28T01:53:08.824Z,2.95
2022-09-28T01:55:15.571Z,4.85
2022-09-28T01:57:26.430Z,3.65
2022-09-28T01:59:34.580Z,4.80
2022-09-28T02:01:42.494Z,3.03
2022-09-28T02:03:52.854Z,4.80
2022-09-28T02:06:01.264Z,3.97
2022-09-28T02:08:09.705Z,5.78
2022-09-28T02:10:19.927Z,7.10
2022-09-28T02:12:33.312Z,2.97
2022-09-28T02:14:40.694Z,5.72
2022-09-28T02:16:46.665Z,3.75
2022-09-28T02:18:52.402Z,10.73
2022-09-28T02:21:02.471Z,7.53
2022-09-28T02:23:08.405Z,7.03
2022-09-28T02:25:18.390Z,12.82
2022-09-28T02:29:33.346Z,12.68
2022-09-28T02:31:38.650Z,8.70
2022-09-28T02:33:45.633Z,11.73
2022-09-28T02:35:50.332Z,6.53
2022-09-28T02:37:56.766Z,10.35
2022-09-28T02:40:01.711Z,10.68
2022-09-28T02:42:18.615Z,12.40
2022-09-28T02:44:51.340Z,9.85
2022-09-28T02:47:01.334Z,13.23
2022-09-28T02:49:22.476Z,7.78
2022-09-28T02:51:37.627Z,13.95
2022-09-28T02:54:04.995Z,11.05
2022-09-28T02:56:30.814Z,15.02
2022-09-28T02:58:43.691Z,10.10
2022-09-28T03:00:56.261Z,8.40
2022-09-28T03:03:10.174Z,12.73
2022-09-28T03:05:20.808Z,14.32
2022-09-28T03:07:30.031Z,12.25
2022-09-28T03:09:38.717Z,8.75
2022-09-28T03:11:48.457Z,9.77
2022-09-28T03:13:54.341Z,7.40
2022-09-28T03:16:13.396Z,6.97
2022-09-28T03:18:19.335Z,7.53
2022-09-28T03:20:23.829Z,7.07
2022-09-28T03:22:28.230Z,12.40
2022-09-28T03:24:32.649Z,7.82
2022-09-28T03:26:37.196Z,8.25
2022-09-28T03:28:42.397Z,7.03
2022-09-28T03:30:52.380Z,9.82
2022-09-28T03:33:03.301Z,9.68
2022-09-28T03:35:11.495Z,8.52
2022-09-28T03:37:15.812Z,8.55
2022-09-28T03:39:20.290Z,7.55
2022-09-28T03:41:27.871Z,13.05
2022-09-28T03:43:32.582Z,8.23
2022-09-28T03:45:39.561Z,10.18
2022-09-28T03:47:47.623Z,7.65
2022-09-28T03:49:53.579Z,13.15
2022-09-28T03:51:57.954Z,12.93
2022-09-28T03:54:02.882Z,8.52
2022-09-28T03:56:10.495Z,7.88
2022-09-28T03:58:15.138Z,8.32
2022-09-28T04:00:20.121Z,7.45
2022-09-28T04:02:26.076Z,7.35
2022-09-28T04:04:30.905Z,9.30
2022-09-28T04:06:37.162Z,7.38
2022-09-28T04:08:43.210Z,8.60
2022-09-28T04:10:48.502Z,8.68
2022-09-28T04:12:56.234Z,8.43
2022-09-28T04:15:00.838Z,10.10
2022-09-28T04:17:06.469Z,8.27
2022-09-28T04:19:11.185Z,14.00
2022-09-28T04:21:22.717Z,7.95
2022-09-28T04:23:34.776Z,6.93
2022-09-28T04:25:39.795Z,8.32
2022-09-28T04:28:03.824Z,10.85
2022-09-28T04:30:09.536Z,6.72
2022-09-28T04:32:14.757Z,8.48
2022-09-28T04:34:21.595Z,5.63
2022-09-28T04:36:26.787Z,7.18
2022-09-28T04:38:51.857Z,7.57
2022-09-28T04:40:57.778Z,7.03
2022-09-28T04:43:02.499Z,7.60
2022-09-28T04:45:08.242Z,12.18
2022-09-28T04:47:16.424Z,17.88
2022-09-28T04:49:24.556Z,16.67
2022-09-28T04:51:32.758Z,18.35
2022-09-28T04:53:37.500Z,19.85
2022-09-28T04:55:43.361Z,19.23
2022-09-28T04:57:49.607Z,18.77
2022-09-28T04:59:54.061Z,19.95
2022-09-28T05:01:58.373Z,19.75
2022-09-28T05:04:03.311Z,19.83
2022-09-28T05:06:33.800Z,20.92
2022-09-28T05:08:47.029Z,21.00
2022-09-28T05:11:00.138Z,21.77
2022-09-28T05:13:10.839Z,22.25
2022-09-28T05:15:15.622Z,22.52
2022-09-28T05:17:20.198Z,22.83
2022-09-28T05:19:43.559Z,23.48
2022-09-28T05:21:49.293Z,22.48
2022-09-28T05:23:56.372Z,23.40
2022-09-28T05:26:03.250Z,23.10
2022-09-28T05:28:10.122Z,22.75
2022-09-28T05:30:43.081Z,22.65
2022-09-28T05:33:03.410Z,22.65
2022-09-28T05:35:19.400Z,23.48
2022-09-28T05:37:25.201Z,22.63
2022-09-28T05:39:29.594Z,22.08
2022-09-28T05:41:33.999Z,22.23
2022-09-28T05:43:39.926Z,22.02
2022-09-28T05:45:44.353Z,17.98
2022-09-28T05:47:49.167Z,21.20
2022-09-28T05:49:56.976Z,19.13
2022-09-28T05:52:01.330Z,17.95
2022-09-28T05:54:06.475Z,18.58
2022-09-28T05:56:13.780Z,19.70
2022-09-28T05:58:21.875Z,18.27
2022-09-28T06:00:28.352Z,17.73
2022-09-28T06:02:33.819Z,16.80
2022-09-28T06:04:38.441Z,16.58
2022-09-28T06:06:43.354Z,17.70
2022-09-28T06:08:48.606Z,18.52
2022-09-28T06:11:13.763Z,17.83
2022-09-28T06:13:18.658Z,18.20
2022-09-28T06:15:23.058Z,17.70
2022-09-28T06:17:29.220Z,16.92
2022-09-28T06:19:53.652Z,15.68
2022-09-28T06:22:12.913Z,16.97
2022-09-28T06:24:30.430Z,16.13
2022-09-28T06:26:34.908Z,15.18
2022-09-28T06:28:39.345Z,14.30
2022-09-28T06:30:45.272Z,15.70
2022-09-28T06:32:56.653Z,14.30
2022-09-28T06:35:00.966Z,14.88
2022-09-28T06:37:05.752Z,14.07
2022-09-28T06:39:10.792Z,13.35
2022-09-28T06:41:16.068Z,14.68
2022-09-28T06:43:21.975Z,13.32
2022-09-28T06:45:45.135Z,12.63
2022-09-28T06:48:03.989Z,12.38
2022-09-28T06:50:15.157Z,11.98
2022-09-28T06:52:29.414Z,11.82
2022-09-28T06:55:00.051Z,12.32
2022-09-28T06:57:16.665Z,11.70
2022-09-28T06:59:21.471Z,11.25
2022-09-28T07:01:26.202Z,11.52
2022-09-28T07:03:58.047Z,10.88
2022-09-28T07:06:24.269Z,10.50
2022-09-28T07:09:07.435Z,10.93
2022-09-28T07:11:41.672Z,9.55
2022-09-28T07:13:56.551Z,9.90
2022-09-28T07:16:04.595Z,10.25
2022-09-28T07:18:10.048Z,10.25
2022-09-28T07:20:19.787Z,10.25
2022-09-28T07:22:39.297Z,9.25
2022-09-28T07:27:09.789Z,7.93
2022-09-28T07:29:36.670Z,6.90
2022-09-28T07:31:59.875Z,6.68
2022-09-28T07:34:23.266Z,7.40
2022-09-28T07:36:58.950Z,7.00
2022-09-28T07:39:04.552Z,7.05
2022-09-28T07:41:12.498Z,6.50
2022-09-28T07:43:23.813Z,5.47
2022-09-28T07:45:31.756Z,5.63
2022-09-28T07:47:37.221Z,6.07
2022-09-28T07:50:02.224Z,5.63
2022-09-28T07:52:20.972Z,6.00
2022-09-28T07:54:44.848Z,5.72
2022-09-28T07:57:09.382Z,6.05
2022-09-28T07:59:40.299Z,5.18
2022-09-28T08:02:10.281Z,5.13
2022-09-28T08:04:14.881Z,4.82
2022-09-28T08:06:21.627Z,4.57
2022-09-28T08:08:29.127Z,4.38
2022-09-28T08:10:34.248Z,4.80
2022-09-28T08:13:02.890Z,4.38
2022-09-28T08:15:16.607Z,4.05
2022-09-28T08:17:20.938Z,4.10
2022-09-28T08:19:49.000Z,3.75
2022-09-28T08:21:52.636Z,3.33
2022-09-28T08:23:58.862Z,3.50
2022-09-28T08:26:03.752Z,2.97
2022-09-28T08:28:09.852Z,3.28
2022-09-28T08:30:21.653Z,2.97
2022-09-28T08:32:37.126Z,3.75
2022-09-28T08:35:10.757Z,3.30
2022-09-28T08:37:24.150Z,3.13
2022-09-28T08:39:49.144Z,3.30
2022-09-28T08:42:32.469Z,3.47
2022-09-28T08:44:58.060Z,3.53
2022-09-28T08:47:44.406Z,3.85
2022-09-28T08:50:04.322Z,3.58
2022-09-28T08:52:39.322Z,3.22
2022-09-28T08:55:08.854Z,3.42
2022-09-28T08:57:22.287Z,3.25
2022-09-28T08:59:34.949Z,3.45
2022-09-28T09:01:49.253Z,3.90
2022-09-28T09:03:55.366Z,3.90
2022-09-28T09:06:24.308Z,3.88
2022-09-28T09:08:48.093Z,4.13
2022-09-28T09:10:57.963Z,3.80
2022-09-28T09:13:48.878Z,3.10
2022-09-28T09:16:03.682Z,3.75
2022-09-28T09:18:38.250Z,2.95
2022-09-28T09:21:09.220Z,3.20
2022-09-28T09:23:21.019Z,3.38
2022-09-28T09:25:29.617Z,3.33
2022-09-28T09:27:52.259Z,3.13
2022-09-28T09:30:06.351Z,3.60
2022-09-28T09:32:41.341Z,4.10
2022-09-28T09:35:43.142Z,2.97
2022-09-28T09:38:20.721Z,3.10
2022-09-28T09:40:54.794Z,2.80
2022-09-28T09:43:58.896Z,3.33
2022-09-28T09:46:31.792Z,2.80
2022-09-28T09:49:01.935Z,3.13
2022-09-28T09:51:16.515Z,3.17
2022-09-28T09:53:25.481Z,3.08
2022-09-28T09:55:35.756Z,3.30
2022-09-28T09:58:06.508Z,2.92
2022-09-28T10:00:18.040Z,2.92
2022-09-28T10:02:37.210Z,3.15
2022-09-28T10:04:55.145Z,2.70
2022-09-28T10:07:14.556Z,2.55
2022-09-28T10:09:26.058Z,3.85
2022-09-28T10:11:37.319Z,2.38
2022-09-28T10:13:44.853Z,2.90
2022-09-28T10:16:09.630Z,2.70
2022-09-28T10:18:24.577Z,2.40
2022-09-28T10:20:47.480Z,2.80
2022-09-28T10:23:19.192Z,3.00
2022-09-28T10:25:24.046Z,2.45
2022-09-28T10:27:33.247Z,2.60
2022-09-28T10:29:46.119Z,2.97
2022-09-28T10:31:51.837Z,2.70
2022-09-28T10:34:08.993Z,2.72
2022-09-28T10:36:14.067Z,2.38
2022-09-28T10:38:20.615Z,2.35
2022-09-28T10:40:46.985Z,2.80
2022-09-28T10:43:02.984Z,2.40
2022-09-28T10:45:22.723Z,2.17
2022-09-28T10:47:30.911Z,2.40
2022-09-28T10:49:48.564Z,2.75
2022-09-28T10:51:57.421Z,2.13
2022-09-28T10:54:17.118Z,2.80
2022-09-28T10:56:29.937Z,2.40
2022-09-28T10:58:42.213Z,2.47
2022-09-28T11:00:52.904Z,2.63
2022-09-28T11:03:02.326Z,2.40
2022-09-28T11:05:09.384Z,2.17
2022-09-28T11:07:21.645Z,1.90
2022-09-28T11:09:31.255Z,2.03
2022-09-28T11:11:43.298Z,2.15
2022-09-28T11:13:50.675Z,2.72
2022-09-28T11:16:02.689Z,2.28
2022-09-28T11:18:26.483Z,2.40
2022-09-28T11:20:36.172Z,2.05
2022-09-28T11:22:44.848Z,2.03
2022-09-28T11:24:52.430Z,2.00
2022-09-28T11:27:00.407Z,2.05
2022-09-28T11:29:18.575Z,2.60
2022-09-28T11:31:31.549Z,1.70
2022-09-28T11:33:46.397Z,2.55
2022-09-28T11:36:31.284Z,2.10
2022-09-28T11:38:42.548Z,2.10
2022-09-28T11:41:35.602Z,2.03
2022-09-28T11:43:57.210Z,1.70
2022-09-28T11:46:10.598Z,2.08
2022-09-28T11:48:17.418Z,2.20
2022-09-28T11:50:29.990Z,2.22
2022-09-28T11:52:43.359Z,1.80
2022-09-28T11:54:55.338Z,2.22
2022-09-28T11:57:03.756Z,2.63
2022-09-28T11:59:16.061Z,1.40
2022-09-28T12:01:31.622Z,1.90
2022-09-28T12:04:04.181Z,2.40
2022-09-28T12:08:22.635Z,1.98
2022-09-28T12:10:49.121Z,2.50
2022-09-28T12:13:03.076Z,2.00
2022-09-28T12:15:16.608Z,2.40
2022-09-28T12:17:26.837Z,2.00
2022-09-28T12:19:36.338Z,2.13
2022-09-28T12:21:46.967Z,1.80
2022-09-28T12:23:55.091Z,1.92
2022-09-28T12:26:03.402Z,2.25
2022-09-28T12:28:14.206Z,2.28
2022-09-28T12:30:21.186Z,1.52
2022-09-28T12:32:33.387Z,1.95
2022-09-28T12:34:38.166Z,2.17
2022-09-28T12:36:57.705Z,1.50
2022-09-28T12:39:23.955Z,2.17
2022-09-28T12:43:57.237Z,1.95
2022-09-28T12:48:37.279Z,2.15
2022-09-28T12:50:56.750Z,1.92
2022-09-28T12:53:21.277Z,2.10
2022-09-28T12:55:52.429Z,1.50
2022-09-28T12:58:05.599Z,1.90
2022-09-28T13:00:15.671Z,1.63
2022-09-28T13:02:41.212Z,1.83
2022-09-28T13:05:09.284Z,1.70
2022-09-28T13:07:24.055Z,1.42
2022-09-28T13:09:31.721Z,1.50
2022-09-28T13:11:45.746Z,1.60
2022-09-28T13:13:59.880Z,1.70
2022-09-28T13:16:10.487Z,1.70
2022-09-28T13:18:27.572Z,1.70
2022-09-28T13:20:46.440Z,1.40
2022-09-28T13:22:57.294Z,1.67
2022-09-28T13:25:10.302Z,2.45
2022-09-28T13:27:21.879Z,1.80
2022-09-28T13:29:27.349Z,1.77
2022-09-28T13:31:35.986Z,2.40
2022-09-28T13:33:45.945Z,2.45
2022-09-28T13:35:50.732Z,2.00
2022-09-28T13:38:47.315Z,2.20
2022-09-28T13:41:13.045Z,1.80
2022-09-28T13:43:30.251Z,1.98
2022-09-28T13:45:56.805Z,1.80
2022-09-28T13:48:15.766Z,2.20
2022-09-28T13:50:29.836Z,1.90
2022-09-28T13:52:45.392Z,1.73
2022-09-28T13:54:58.548Z,1.70
2022-09-28T13:57:18.433Z,1.63
2022-09-28T13:59:28.447Z,1.73
2022-09-28T14:01:39.109Z,1.63
2022-09-28T14:03:54.505Z,1.90
2022-09-28T14:06:11.673Z,1.70
2022-09-28T14:08:40.549Z,1.95
2022-09-28T14:10:52.191Z,1.92
2022-09-28T14:12:56.781Z,1.85
2022-09-28T14:15:42.051Z,1.80
2022-09-28T14:18:01.266Z,1.88
2022-09-28T14:20:12.106Z,1.55
2022-09-28T14:22:24.257Z,1.95
2022-09-28T14:24:40.394Z,1.83
2022-09-28T14:27:26.269Z,2.38
2022-09-28T14:29:32.440Z,1.80
2022-09-28T14:31:44.879Z,1.75
2022-09-28T14:33:59.401Z,2.30
2022-09-28T14:36:08.553Z,2.40
2022-09-28T14:38:35.563Z,1.95
2022-09-28T14:41:13.185Z,2.00
2022-09-28T14:43:28.096Z,2.28
2022-09-28T14:45:39.255Z,1.83
2022-09-28T14:47:46.531Z,2.30
2022-09-28T14:50:02.126Z,1.90
2022-09-28T14:52:12.011Z,2.67
2022-09-28T14:54:21.463Z,2.45
2022-09-28T14:56:32.475Z,1.87
2022-09-28T14:58:38.991Z,1.95
2022-09-28T15:00:45.679Z,2.10
2022-09-28T15:02:55.327Z,2.35
2022-09-28T15:05:10.949Z,2.10
2022-09-28T15:07:21.768Z,2.95
2022-09-28T15:09:29.079Z,3.42
2022-09-28T15:11:34.170Z,3.50
2022-09-28T15:13:40.888Z,5.63
2022-09-28T15:15:50.766Z,3.38
2022-09-28T15:18:07.435Z,2.08
2022-09-28T15:20:24.716Z,2.33
2022-09-28T15:22:30.403Z,1.92
2022-09-28T15:24:35.936Z,3.08
2022-09-28T15:26:40.645Z,5.82
2022-09-28T15:28:46.629Z,4.50
2022-09-28T15:30:52.288Z,2.50
2022-09-28T15:33:19.886Z,6.30
2022-09-28T15:35:26.491Z,4.07
2022-09-28T15:37:40.671Z,3.58
2022-09-28T15:39:48.495Z,4.35
2022-09-28T15:41:53.280Z,2.45
2022-09-28T15:44:20.042Z,3.13
2022-09-28T15:46:29.463Z,4.78
2022-09-28T15:48:43.296Z,3.38
2022-09-28T15:51:12.546Z,3.85
2022-09-28T15:53:20.060Z,4.25
2022-09-28T15:55:28.470Z,4.18
2022-09-28T15:57:39.014Z,3.53
2022-09-28T15:59:47.142Z,4.03
2022-09-28T16:02:08.070Z,3.45
2022-09-28T16:04:38.899Z,4.38
2022-09-28T16:06:44.230Z,3.15
2022-09-28T16:08:49.842Z,3.35
2022-09-28T16:10:58.613Z,3.75
2022-09-28T16:13:16.314Z,3.20
2022-09-28T16:15:23.129Z,3.28
2022-09-28T16:17:32.951Z,3.08
2022-09-28T16:21:48.852Z,3.75
2022-09-28T16:23:57.681Z,4.55
2022-09-28T16:26:04.312Z,4.10
2022-09-28T16:28:13.642Z,4.90
2022-09-28T16:30:24.399Z,5.75
2022-09-28T16:32:41.824Z,6.25
2022-09-28T16:34:48.103Z,6.10
2022-09-28T16:36:52.602Z,6.50
2022-09-28T16:38:57.737Z,7.40
2022-09-28T16:41:04.123Z,8.48
2022-09-28T16:43:11.478Z,11.93
2022-09-28T16:45:21.693Z,9.85
2022-09-28T16:47:27.085Z,7.90
2022-09-28T16:49:35.106Z,7.53
2022-09-28T16:51:41.343Z,6.50
2022-09-28T16:53:59.926Z,6.03
2022-09-28T16:56:05.745Z,5.43
2022-09-28T16:58:10.499Z,7.38
2022-09-28T17:00:20.424Z,9.25
2022-09-28T17:04:57.383Z,9.05
2022-09-28T17:07:12.276Z,10.02
2022-09-28T17:09:16.819Z,11.85
2022-09-28T17:11:24.850Z,13.93
2022-09-28T17:13:33.513Z,16.48
2022-09-28T17:15:39.120Z,14.57
2022-09-28T17:17:43.549Z,20.08
2022-09-28T17:19:48.086Z,20.85
2022-09-28T17:21:54.166Z,19.15
2022-09-28T17:24:00.299Z,19.73
2022-09-28T17:26:06.349Z,18.45
2022-09-28T17:28:19.560Z,18.17
2022-09-28T17:30:25.801Z,15.43
2022-09-28T17:32:32.864Z,16.67
2022-09-28T17:34:37.538Z,17.40
2022-09-28T17:36:43.003Z,17.17
2022-09-28T17:38:48.953Z,15.13
2022-09-28T17:40:55.979Z,15.30
2022-09-28T17:43:01.270Z,13.82
2022-09-28T17:45:06.955Z,15.13
2022-09-28T17:47:12.219Z,13.73
2022-09-28T17:49:16.979Z,13.80
2022-09-28T17:51:22.617Z,13.52
2022-09-28T17:53:27.169Z,14.20
2022-09-28T17:55:32.582Z,13.70
2022-09-28T17:57:38.629Z,12.93
2022-09-28T17:59:43.256Z,12.07
2022-09-28T18:01:48.562Z,11.45
2022-09-28T18:03:53.086Z,10.52
2022-09-28T18:06:02.748Z,10.20
2022-09-28T18:08:06.949Z,10.25
2022-09-28T18:10:15.838Z,11.23
2022-09-28T18:12:20.184Z,12.50
2022-09-28T18:14:25.989Z,13.32
2022-09-28T18:16:30.321Z,11.20
2022-09-28T18:18:38.251Z,14.70
2022-09-28T18:20:42.962Z,14.80
2022-09-28T18:22:47.451Z,18.17
2022-09-28T18:24:57.135Z,18.02
2022-09-28T18:27:02.021Z,20.80
2022-09-28T18:29:06.685Z,18.70
2022-09-28T18:31:15.474Z,16.55
2022-09-28T18:33:22.049Z,14.97
2022-09-28T18:35:28.747Z,15.32
2022-09-28T18:37:36.595Z,13.25
2022-09-28T18:39:40.979Z,12.00
2022-09-28T18:41:45.478Z,11.52
2022-09-28T18:43:51.401Z,11.27
2022-09-28T18:45:56.565Z,12.70
2022-09-28T18:48:03.025Z,11.98
2022-09-28T18:50:11.725Z,11.93
2022-09-28T18:52:19.255Z,11.52
2022-09-28T18:54:42.041Z,10.57
2022-09-28T18:56:53.011Z,11.00
2022-09-28T18:59:12.626Z,10.88
2022-09-28T19:01:31.081Z,8.85
2022-09-28T19:03:39.666Z,9.27
2022-09-28T19:05:44.739Z,10.77
2022-09-28T19:07:49.149Z,9.20
2022-09-28T19:09:54.582Z,8.30
2022-09-28T19:11:59.258Z,7.38
2022-09-28T19:14:03.876Z,6.47
2022-09-28T19:16:10.046Z,6.07
2022-09-28T19:18:14.249Z,6.20
2022-09-28T19:20:20.247Z,5.63
2022-09-28T19:22:24.685Z,5.53
2022-09-28T19:24:29.191Z,5.65
2022-09-28T19:26:34.427Z,5.57
2022-09-28T19:28:43.197Z,10.07
2022-09-28T19:30:56.124Z,8.45
2022-09-28T19:33:00.781Z,8.95
2022-09-28T19:35:05.957Z,8.40
2022-09-28T19:37:12.379Z,8.23
2022-09-28T19:39:16.878Z,7.60
2022-09-28T19:41:43.082Z,6.72
2022-09-28T19:43:48.066Z,8.00
2022-09-28T19:45:53.413Z,8.13
2022-09-28T19:47:59.528Z,7.72
2022-09-28T19:50:07.572Z,7.60
2022-09-28T19:52:17.142Z,7.63
2022-09-28T19:54:22.353Z,7.85
2022-09-28T19:56:28.820Z,7.03
2022-09-28T19:58:35.468Z,7.18
2022-09-28T20:00:39.840Z,7.35
2022-09-28T20:02:44.258Z,6.50
2022-09-28T20:04:49.041Z,7.18
2022-09-28T20:06:53.987Z,6.47
2022-09-28T20:09:00.118Z,7.07
2022-09-28T20:11:05.626Z,7.28
2022-09-28T20:13:10.000Z,7.35
2022-09-28T20:15:14.814Z,7.20
2022-09-28T20:17:19.932Z,6.35
2022-09-28T20:19:24.407Z,7.47
2022-09-28T20:21:29.340Z,6.65
2022-09-28T20:23:34.733Z,6.75
2022-09-28T20:25:40.397Z,7.15
2022-09-28T20:27:44.781Z,6.05
2022-09-28T20:30:07.811Z,7.57
2022-09-28T20:32:12.404Z,6.93
2022-09-28T20:34:16.912Z,6.90
2022-09-28T20:36:23.550Z,6.60
2022-09-28T20:38:27.933Z,6.28
2022-09-28T20:40:32.224Z,6.78
2022-09-28T20:42:38.558Z,7.38
2022-09-28T20:44:42.782Z,6.85
2022-09-28T20:46:51.471Z,6.88
2022-09-28T20:48:57.968Z,7.13
2022-09-28T20:51:03.553Z,6.28
2022-09-28T20:53:07.913Z,6.45
2022-09-28T20:55:12.154Z,6.63
2022-09-28T20:57:20.694Z,7.13
2022-09-28T20:59:27.814Z,6.75
2022-09-28T21:01:32.489Z,6.47
2022-09-28T21:03:36.946Z,6.75
2022-09-28T21:05:41.317Z,6.60
2022-09-28T21:07:45.608Z,8.52
2022-09-28T21:09:50.641Z,9.90
2022-09-28T21:11:55.248Z,8.13
2022-09-28T21:14:01.216Z,6.88
2022-09-28T21:16:08.093Z,6.95
2022-09-28T21:18:12.811Z,6.80
2022-09-28T21:20:17.191Z,7.38
2022-09-28T21:22:21.416Z,7.10
2022-09-28T21:24:27.121Z,7.43
2022-09-28T21:26:32.558Z,7.43
2022-09-28T21:28:37.637Z,8.20
2022-09-28T21:30:42.442Z,6.93
2022-09-28T21:32:50.271Z,7.65
2022-09-28T21:34:56.068Z,7.22
2022-09-28T21:37:00.213Z,6.97
2022-09-28T21:39:09.527Z,6.10
2022-09-28T21:41:14.580Z,7.10
2022-09-28T21:43:18.733Z,7.15
2022-09-28T21:45:25.192Z,6.78
2022-09-28T21:47:29.974Z,6.90
2022-09-28T21:49:35.592Z,7.13
2022-09-28T21:51:40.046Z,7.47
2022-09-28T21:53:45.474Z,6.40
2022-09-28T21:55:52.580Z,8.35
2022-09-28T21:57:56.818Z,6.70
2022-09-28T22:00:01.039Z,6.90
2022-09-28T22:02:06.814Z,6.45
2022-09-28T22:04:12.132Z,6.85
2022-09-28T22:06:19.937Z,7.70
2022-09-28T22:08:26.686Z,7.28
2022-09-28T22:10:30.950Z,6.82
2022-09-28T22:12:35.571Z,6.38
2022-09-28T22:14:39.881Z,7.07
2022-09-28T22:16:44.124Z,6.45
2022-09-28T22:18:49.027Z,6.90
2022-09-28T22:21:00.747Z,8.02
2022-09-28T22:23:06.715Z,8.25
2022-09-28T22:25:11.378Z,7.43
2022-09-28T22:27:16.775Z,7.57
2022-09-28T22:29:21.770Z,7.07
2022-09-28T22:31:28.140Z,8.13
2022-09-28T22:33:32.541Z,7.43
2022-09-28T22:35:36.936Z,6.70
2022-09-28T22:37:41.272Z,7.35
2022-09-28T22:39:47.621Z,6.60
2022-09-28T22:41:52.665Z,7.50
2022-09-28T22:43:57.083Z,6.85
2022-09-28T22:46:08.164Z,7.35
2022-09-28T22:48:12.999Z,6.00
2022-09-28T22:50:17.402Z,7.22
2022-09-28T22:52:22.908Z,7.72
2022-09-28T22:54:27.327Z,7.32
2022-09-28T22:56:33.336Z,6.55
2022-09-28T22:58:39.247Z,7.30
2022-09-28T23:00:44.739Z,7.25
2022-09-28T23:02:49.293Z,6.40
2022-09-28T23:04:53.592Z,6.82
2022-09-28T23:06:58.279Z,7.22
2022-09-28T23:09:02.962Z,8.25
2022-09-28T23:11:08.112Z,7.20
2022-09-28T23:13:13.811Z,6.88
2022-09-28T23:15:18.161Z,7.75
2022-09-28T23:17:22.680Z,7.10
2022-09-28T23:19:26.904Z,7.57
2022-09-28T23:21:31.941Z,6.65
2022-09-28T23:23:36.352Z,7.80
2022-09-28T23:25:40.655Z,7.45
2022-09-28T23:27:47.433Z,7.53
2022-09-28T23:29:54.438Z,7.45
2022-09-28T23:31:58.750Z,7.78
2022-09-28T23:34:06.528Z,6.97
2022-09-28T23:36:11.710Z,7.15
2022-09-28T23:38:18.079Z,8.65
2022-09-28T23:40:22.554Z,7.85
2022-09-28T23:42:26.865Z,8.95
2022-09-28T23:44:31.388Z,8.13
2022-09-28T23:46:38.989Z,8.75
2022-09-28T23:48:43.646Z,7.57
2022-09-28T23:50:48.219Z,7.15
2022-09-28T23:52:52.827Z,7.50
2022-09-28T23:54:57.120Z,7.72
2022-09-28T23:57:01.335Z,7.85
2022-09-28T23:59:09.769Z,7.82
